Flight Track Log - Related Links

Times and Time Zones

All times are in EDT time to prevent confusion due to time zone crossing. See the EJA929 flight status page for this flight to view local times or setup timezone preferences in your user account.

Time Position Orientation Groundspeed Altitude Reporting Facility
EDT Latitude Longitude Course Direction KTS MPH feet Rate Location/Type
Sun 11:37:05 AM 43.5597 -110.7675 249° West 227 261 8,700  Level Salt Lake Center
Sun 11:38:07 AM 43.5011 -110.8061 206° Southwest 232 267 12,600 3,048 Climbing Salt Lake Center
Sun 11:39:09 AM 43.4439 -110.8797 223° Southwest 297 342 15,000 1,984 Climbing Salt Lake Center
Sun 11:40:00 AM 43.1282 -111.3839 258° West  Level FlightAware Approximate
Sun 11:40:11 AM 43.3964 -111.0047 242° Southwest 358 412 16,700  Level Salt Lake Center
Sun 11:41:00 AM 43.1030 -111.5475 258° West  Level FlightAware Approximate
Sun 11:41:13 AM 43.3442 -111.1392 242° Southwest 391 450 17,900  Level Salt Lake Center
Sun 11:42:00 AM 43.0608 -111.7041 249° West  Level FlightAware Approximate
Sun 11:42:15 AM 43.2817 -111.3028 242° Southwest 402 463 19,600  Level Salt Lake Center
Sun 11:43:17 AM 43.2331 -111.4289 242° Southwest 408 470 20,800 1,258 Climbing Salt Lake Center
Sun 11:44:19 AM 43.1714 -111.5839 241° Southwest 414 476 22,200 1,258 Climbing Salt Lake Center
Sun 11:46:23 AM 43.0539 -111.8828 242° Southwest 432 497 24,700 1,161 Climbing Salt Lake Center
Sun 11:47:25 AM 42.9967 -112.0256 241° Southwest 442 509 25,800 1,258 Climbing Salt Lake Center
Sun 11:48:27 AM 42.9294 -112.1953 242° Southwest 452 520 27,300 1,597 Climbing Salt Lake Center
Sun 11:49:29 AM 42.8717 -112.3381 241° Southwest 450 518 29,100 1,790 Climbing Salt Lake Center
Sun 11:50:31 AM 42.8139 -112.4786 241° Southwest 445 512 31,000 1,984 Climbing Salt Lake Center
Sun 11:51:33 AM 42.7489 -112.6439 242° Southwest 442 509 33,200 2,081 Climbing Salt Lake Center
Sun 11:52:35 AM 42.6867 -112.7922 240° Southwest 440 506 35,300 1,839 Climbing Salt Lake Center
Sun 11:53:37 AM 42.6269 -112.9378 241° Southwest 442 509 37,000 823 Climbing Salt Lake Center
Sun 11:54:39 AM 42.5642 -113.0914 241° Southwest 465 535 37,000  Level Salt Lake Center
Sun 11:55:41 AM 42.4950 -113.2561 240° Southwest 498 573 37,000 48 Level Salt Lake Center
Sun 11:56:44 AM 42.4089 -113.4597 240° Southwest 517 595 37,100 528 Climbing Salt Lake Center
Sun 11:57:46 AM 42.3386 -113.6283 241° Southwest 515 593 38,100 968 Climbing Salt Lake Center
Sun 11:58:48 AM 42.2692 -113.7939 240° Southwest 508 585 39,100 919 Climbing Salt Lake Center
Sun 11:59:50 AM 42.2003 -113.9567 240° Southwest 503 579 40,000 435 Climbing Salt Lake Center
Sun 12:00:52 PM 42.1311 -114.1186 236° Southwest 499 574 40,000  Level Salt Lake Center
Sun 12:01:00 PM 42.1200 -114.1150 236° Southwest  Level FlightAware Approximate
Sun 12:01:54 PM 42.0594 -114.2831 240° Southwest 509 586 40,000  Level Salt Lake Center
Sun 12:02:56 PM 41.9753 -114.4797 240° Southwest 508 585 40,000  Level Salt Lake Center
Sun 12:03:58 PM 41.9122 -114.6314 241° Southwest 511 588 40,000  Level Salt Lake Center
Sun 12:05:00 PM 41.8328 -114.8114 239° Southwest 505 581 40,000  Level Salt Lake Center
Sun 12:06:02 PM 41.7622 -114.9672 239° Southwest 509 586 40,000  Level Salt Lake Center
Sun 12:07:39 PM 41.6489 -115.2281 240° Southwest 508 585 40,000  Level Oakland Center
Sun 12:08:40 PM 41.5683 -115.4100 239° Southwest 508 585 40,000  Level Oakland Center
Sun 12:09:41 PM 41.4989 -115.5650 239° Southwest 509 586 40,000  Level Oakland Center
Sun 12:10:43 PM 41.4183 -115.7444 239° Southwest 508 585 40,000  Level Oakland Center
Sun 12:11:44 PM 41.3486 -115.8981 239° Southwest 506 582 40,000  Level Oakland Center
Sun 12:12:14 PM 41.3125 -115.9725 237° Southwest 505 581 40,000  Level Salt Lake Center
Sun 12:13:16 PM 41.2311 -116.1508 239° Southwest 507 583 40,000  Level Salt Lake Center
Sun 12:14:18 PM 41.1617 -116.3050 239° Southwest 509 586 40,000  Level Salt Lake Center
Sun 12:15:20 PM 41.0803 -116.4831 239° Southwest 508 585 40,000  Level Salt Lake Center
Sun 12:16:22 PM 41.0092 -116.6333 238° Southwest 505 581 40,000  Level Salt Lake Center
Sun 12:17:24 PM 40.9264 -116.8100 238° Southwest 508 585 40,000  Level Salt Lake Center
Sun 12:18:26 PM 40.8561 -116.9608 238° Southwest 507 583 40,000  Level Salt Lake Center
Sun 12:19:28 PM 40.7742 -117.1378 239° Southwest 509 586 40,000  Level Salt Lake Center
Sun 12:20:30 PM 40.7019 -117.2869 237° Southwest 507 583 40,000  Level Salt Lake Center
Sun 12:22:34 PM 40.5472 -117.6111 238° Southwest 508 585 40,000  Level Salt Lake Center
Sun 12:23:36 PM 40.4636 -117.7844 238° Southwest 504 580 40,000  Level Salt Lake Center
Sun 12:24:38 PM 40.3906 -117.9325 237° Southwest 505 581 40,000  Level Salt Lake Center
Sun 12:25:40 PM 40.3189 -118.0803 238° Southwest 505 581 40,000  Level Salt Lake Center
Sun 12:26:42 PM 40.2406 -118.2586 240° Southwest 506 582 40,000  Level Salt Lake Center
Sun 12:27:44 PM 40.1933 -118.4233 249° West 505 581 40,000  Level Salt Lake Center
Sun 12:28:46 PM 40.1336 -118.6267 249° West 506 582 40,000  Level Salt Lake Center
Sun 12:29:48 PM 40.0842 -118.7967 249° West 505 581 40,000  Level Salt Lake Center
Sun 12:31:11 PM 40.0144 -119.0350 249° West 502 578 40,000  Level Oakland Center
Sun 12:32:12 PM 39.9625 -119.2022 248° West 501 577 40,000  Level Oakland Center
Sun 12:33:14 PM 39.9119 -119.3697 249° West 500 575 40,000  Level Oakland Center
Sun 12:34:15 PM 39.8600 -119.5369 248° West 500 575 40,000  Level Oakland Center
Sun 12:35:17 PM 39.8100 -119.7044 249° West 500 575 40,000  Level Oakland Center
Sun 12:36:18 PM 39.7594 -119.8706 248° West 494 568 40,000  Level Oakland Center
Sun 12:37:19 PM 39.7111 -120.0394 250° West 502 578 40,000  Level Oakland Center
Sun 12:38:21 PM 39.6553 -120.2147 248° West 503 579 40,000  Level Oakland Center
Sun 12:39:22 PM 39.6014 -120.3814 247° West 503 579 40,000  Level Oakland Center
Sun 12:40:23 PM 39.5439 -120.5458 246° West 504 580 40,000  Level Oakland Center
Sun 12:41:25 PM 39.4428 -120.7150 232° Southwest 499 574 40,000  Level Oakland Center
Sun 12:42:26 PM 39.3558 -120.8575 232° Southwest 504 580 40,000  Level Oakland Center
Sun 12:43:27 PM 39.2681 -120.9975 231° Southwest 505 581 40,000  Level Oakland Center
Sun 12:44:29 PM 39.1811 -121.1378 231° Southwest 504 580 40,000  Level Oakland Center
Sun 12:45:30 PM 39.0947 -121.2778 232° Southwest 504 580 40,000  Level Oakland Center
Sun 12:46:31 PM 39.0075 -121.4178 231° Southwest 504 580 40,000 -341 Level Oakland Center
Sun 12:47:33 PM 38.9206 -121.5569 231° Southwest 505 581 39,300 -1,756 Descending Oakland Center
Sun 12:48:34 PM 38.8181 -121.7186 231° Southwest 496 571 36,400 -2,508 Descending Oakland Center
Sun 12:49:35 PM 38.7292 -121.8600 231° Southwest 512 589 34,200 -2,244 Descending Oakland Center
Sun 12:50:37 PM 38.6486 -121.9869 231° Southwest 514 592 31,800 -2,488 Descending Oakland Center
Sun 12:51:38 PM 38.5594 -122.1258 231° Southwest 508 585 29,100 -3,163 Descending Oakland Center
Sun 12:53:00 PM 38.4269 -122.2423 211° Southwest  Level FlightAware Approximate
Sun 12:53:41 PM 38.3361 -122.3481 211° Southwest 445 512 22,100  Level Oakland Center
Sun 12:54:42 PM 38.2292 -122.4289 211° Southwest 447 514 19,300 -2,852 Descending Oakland Center
Sun 12:55:43 PM 38.1233 -122.5075 210° Southwest 443 510 16,300 -2,732 Descending Oakland Center
Sun 12:56:45 PM 38.0242 -122.5814 210° Southwest 423 487 13,700 -2,537 Descending Oakland Center
Sun 12:57:46 PM 37.9311 -122.6425 207° Southwest 410 472 11,100 -1,366 Descending Oakland Center
Sun 12:58:48 PM 37.8244 -122.5961 161° South 359 413 10,900 -65 Descending Oakland Center
Sun 12:59:19 PM 37.7833 -122.5500 138° Southeast 370 426 11,000 66 Climbing Northern Cal TRACON
Sun 01:00:19 PM 37.7167 -122.4667 135° Southeast 304 350 11,000 -300 Level Northern Cal TRACON
Sun 01:01:19 PM 37.6500 -122.4167 149° Southeast 246 283 10,400 -1,300 Descending Northern Cal TRACON
Sun 01:02:19 PM 37.6000 -122.3667 142° Southeast 240 276 8,400 -2,350 Descending Northern Cal TRACON
Sun 01:03:19 PM 37.5333 -122.3333 158° South 239 275 5,700 -2,150 Descending Northern Cal TRACON
Sun 01:04:19 PM 37.4833 -122.2833 142° Southeast 242 278 4,100 -900 Descending Northern Cal TRACON
Sun 01:05:19 PM 37.4833 -122.2167 90° East 224 258 3,900 -750 Descending Northern Cal TRACON
Sun 01:06:19 PM 37.5333 -122.2167 360° North 205 236 2,600 -750 Descending Northern Cal TRACON
Sun 01:07:19 PM 37.5667 -122.2667 310° West 181 208 2,400 -600 Descending Northern Cal TRACON
Sun 01:08:19 PM 37.5833 -122.3000 302° West 132 152 1,400 -947 Descending Northern Cal TRACON
Sun 01:09:13 PM 37.6000 -122.3333 302° West 125 144 600 -889 Descending Northern Cal TRACON
Sun 01:12:00 PM 37.6167 -122.3667 North  Level FlightAware Approximate
Sun 01:19:00 PM 37.6191 -122.3752 North  Level Estimated
Sun 01:20:00 PM 37.6167 -122.3667 North  Level FlightAware Approximate
Sun 01:21:00 PM 37.6191 -122.3752 North  Level Estimated
Sun 01:22:00 PM 37.6167 -122.3667 North  Level FlightAware Approximate

Login

Don't have an account? Register now (free) for customized features, flight alerts, and more!